Time;durP1;ratioP1;P1;durP2;ratioP2;P2;SDS_P1;SDS_P2;PMS_P1;PMS_P2;Temp;Humidity;BMP_temperature;BMP_pressure;BME280_temperature;BME280_humidity;BME280_pressure;Samples;Min_cycle;Max_cycle;Signal;HPM_P1;HPM_P2
2023/04/16 00:01:33;;;;;;;;;;;8.00;99.90;;;;;;5027424;28;19921;-71
2023/04/16 00:03:58;;;;;;;;;;;8.00;99.90;;;;;;5020808;28;19921;-74
2023/04/16 00:06:24;;;;;;;;;;;8.00;99.90;;;;;;4976845;28;19984;-72
2023/04/16 00:08:50;;;;;;;;;;;8.00;99.90;;;;;;5012029;28;19967;-71
2023/04/16 00:11:16;;;;;;;;;;;8.10;99.90;;;;;;5012770;28;19921;-73
2023/04/16 00:13:41;;;;;;;;;;;8.30;99.90;;;;;;4994265;28;19922;-71
2023/04/16 00:16:07;;;;;;;;;;;8.10;99.90;;;;;;4992034;28;19921;-70
2023/04/16 00:18:33;;;;;;;;;;;8.10;99.90;;;;;;4982088;28;19981;-73
2023/04/16 00:20:58;;;;;;;;;;;8.00;99.90;;;;;;4991595;28;20029;-72
2023/04/16 00:23:24;;;;;;;;;;;8.00;99.90;;;;;;4991856;28;20027;-71
2023/04/16 00:25:50;;;;;;;;;;;8.00;99.90;;;;;;4990432;28;20270;-75
2023/04/16 00:28:15;;;;;;;;;;;8.10;99.90;;;;;;4975857;28;20283;-72
2023/04/16 00:30:41;;;;;;;;;;;8.10;99.90;;;;;;4993720;28;20338;-74
2023/04/16 00:33:06;;;;;;;;;;;8.10;99.90;;;;;;4993103;28;20325;-72
2023/04/16 00:35:32;;;;;;;;;;;8.10;99.90;;;;;;4975537;28;19922;-73
2023/04/16 00:37:57;;;;;;;;;;;8.40;99.90;;;;;;4974083;28;19976;-72
2023/04/16 00:40:25;;;;;;;;;;;8.10;99.90;;;;;;4975078;28;19922;-72
2023/04/16 00:42:51;;;;;;;;;;;8.10;99.90;;;;;;5001294;28;19928;-75
2023/04/16 00:45:16;;;;;;;;;;;8.10;99.90;;;;;;5011381;28;19921;-75
2023/04/16 00:47:42;;;;;;;;;;;8.10;99.90;;;;;;4995181;28;20378;-81
2023/04/16 00:50:08;;;;;;;;;;;8.10;99.90;;;;;;5013199;28;19925;-73
2023/04/16 00:52:34;;;;;;;;;;;8.10;99.90;;;;;;5012560;28;19929;-73
2023/04/16 00:55:00;;;;;;;;;;;8.10;99.90;;;;;;4994793;28;19921;-72
2023/04/16 00:57:26;;;;;;;;;;;8.10;99.90;;;;;;5011809;28;19921;-73
2023/04/16 00:59:52;;;;;;;;;;;8.10;99.90;;;;;;5012634;28;19929;-73
2023/04/16 01:02:18;;;;;;;;;;;8.10;99.90;;;;;;4995134;28;20076;-73
2023/04/16 01:04:44;;;;;;;;;;;8.00;99.90;;;;;;5013059;28;20021;-73
2023/04/16 01:07:10;;;;;;;;;;;8.10;99.90;;;;;;5011386;28;19995;-73
2023/04/16 01:09:35;;;;;;;;;;;8.10;99.90;;;;;;5012759;28;20395;-73
2023/04/16 01:12:01;;;;;;;;;;;8.10;99.90;;;;;;5001899;28;19921;-73
2023/04/16 01:14:26;;;;;;;;;;;8.10;99.90;;;;;;4993135;28;19918;-72
2023/04/16 01:16:52;;;;;;;;;;;8.10;99.90;;;;;;4993164;28;20277;-73
2023/04/16 01:19:17;;;;;;;;;;;8.10;99.90;;;;;;4993334;28;19977;-73
2023/04/16 01:21:43;;;;;;;;;;;8.00;99.90;;;;;;4992728;28;19969;-73
2023/04/16 01:24:08;;;;;;;;;;;8.00;99.90;;;;;;4993039;28;19929;-73
2023/04/16 01:26:34;;;;;;;;;;;8.10;99.90;;;;;;4977197;28;19922;-73
2023/04/16 01:29:00;;;;;;;;;;;8.00;99.90;;;;;;4975089;28;19976;-73
2023/04/16 01:31:25;;;;;;;;;;;8.10;99.90;;;;;;4976132;28;20016;-73
2023/04/16 01:33:51;;;;;;;;;;;8.00;99.90;;;;;;4975787;28;19917;-73
2023/04/16 01:36:16;;;;;;;;;;;8.10;99.90;;;;;;4992684;28;19929;-73
2023/04/16 01:38:42;;;;;;;;;;;8.10;99.90;;;;;;4994535;28;19922;-73
2023/04/16 01:41:07;;;;;;;;;;;8.40;99.90;;;;;;4979058;28;19989;-73
2023/04/16 01:43:33;;;;;;;;;;;8.10;99.90;;;;;;4996932;28;20009;-73
2023/04/16 01:46:10;;;;;;;;;;;8.00;99.90;;;;;;4979130;28;19925;-72
2023/04/16 01:48:36;;;;;;;;;;;8.00;99.90;;;;;;4996419;28;19967;-72
2023/04/16 01:51:03;;;;;;;;;;;8.10;99.90;;;;;;4989367;28;20008;-73
2023/04/16 01:53:29;;;;;;;;;;;8.00;99.90;;;;;;4984985;28;19929;-73
2023/04/16 01:55:54;;;;;;;;;;;8.20;99.90;;;;;;4978421;28;19925;-73
2023/04/16 01:58:20;;;;;;;;;;;8.10;99.90;;;;;;4996234;28;20289;-73
2023/04/16 02:00:45;;;;;;;;;;;8.10;99.90;;;;;;4996603;28;19976;-73
2023/04/16 02:03:11;;;;;;;;;;;8.10;99.90;;;;;;4995882;28;20016;-73
2023/04/16 02:05:36;;;;;;;;;;;8.10;99.90;;;;;;4996203;28;19976;-73
2023/04/16 02:08:02;;;;;;;;;;;8.10;99.90;;;;;;4978892;28;19922;-74
2023/04/16 02:10:27;;;;;;;;;;;8.10;99.90;;;;;;4978638;28;19925;-73
2023/04/16 02:12:53;;;;;;;;;;;8.10;99.90;;;;;;4996191;28;20286;-73
2023/04/16 02:15:18;;;;;;;;;;;8.50;99.90;;;;;;4979190;28;19922;-73
2023/04/16 02:17:45;;;;;;;;;;;8.10;99.90;;;;;;4995918;28;19926;-73
2023/04/16 02:20:11;;;;;;;;;;;8.10;99.90;;;;;;4995172;28;19961;-73
2023/04/16 02:22:36;;;;;;;;;;;8.10;99.90;;;;;;4996124;28;19997;-73
2023/04/16 02:25:02;;;;;;;;;;;8.10;99.90;;;;;;4978069;28;20012;-73
2023/04/16 02:27:27;;;;;;;;;;;8.10;99.90;;;;;;5015959;28;20289;-73
2023/04/16 02:29:53;;;;;;;;;;;8.40;99.90;;;;;;5015067;28;19921;-73
2023/04/16 02:32:18;;;;;;;;;;;8.10;99.90;;;;;;4997667;28;19991;-73
2023/04/16 02:34:44;;;;;;;;;;;8.10;99.90;;;;;;5015592;28;19932;-73
2023/04/16 02:37:10;;;;;;;;;;;8.10;99.90;;;;;;4997710;28;20216;-73
2023/04/16 02:39:35;;;;;;;;;;;8.10;99.90;;;;;;4997056;28;19922;-73
2023/04/16 02:42:01;;;;;;;;;;;8.10;99.90;;;;;;5015454;28;19927;-73
2023/04/16 02:44:27;;;;;;;;;;;8.60;99.90;;;;;;4997532;28;19971;-73
2023/04/16 02:46:52;;;;;;;;;;;8.10;99.90;;;;;;5014933;28;19922;-73
2023/04/16 02:49:18;;;;;;;;;;;8.10;99.90;;;;;;5015110;28;19921;-73
2023/04/16 02:51:44;;;;;;;;;;;8.10;99.90;;;;;;5014323;28;19965;-73
2023/04/16 02:54:10;;;;;;;;;;;8.10;99.90;;;;;;4997111;28;19964;-73
2023/04/16 02:56:35;;;;;;;;;;;8.20;99.90;;;;;;4997682;28;19921;-73
2023/04/16 02:59:01;;;;;;;;;;;8.20;99.90;;;;;;4996770;28;20004;-73
2023/04/16 03:01:27;;;;;;;;;;;8.10;99.90;;;;;;4999264;28;20004;-73
2023/04/16 03:03:53;;;;;;;;;;;8.10;99.90;;;;;;4995180;28;19922;-73
2023/04/16 03:06:18;;;;;;;;;;;8.50;99.90;;;;;;4994727;28;20288;-73
2023/04/16 03:08:44;;;;;;;;;;;8.20;99.90;;;;;;4995073;28;19926;-73
2023/04/16 03:11:09;;;;;;;;;;;8.20;99.90;;;;;;4977854;28;19976;-73
2023/04/16 03:13:35;;;;;;;;;;;8.10;99.90;;;;;;4995054;28;20038;-73
2023/04/16 03:16:00;;;;;;;;;;;8.20;99.90;;;;;;4977576;28;19921;-73
2023/04/16 03:18:26;;;;;;;;;;;8.20;99.90;;;;;;4993809;28;19929;-72
2023/04/16 03:20:52;;;;;;;;;;;8.10;99.90;;;;;;4955275;29;19930;-73
2023/04/16 03:23:17;;;;;;;;;;;8.50;99.90;;;;;;4956265;28;20032;-73
2023/04/16 03:25:45;;;;;;;;;;;8.20;99.90;;;;;;4955402;29;20378;-73
2023/04/16 03:28:11;;;;;;;;;;;8.20;99.90;;;;;;4954307;29;20290;-73
2023/04/16 03:30:37;;;;;;;;;;;8.20;99.90;;;;;;4967670;28;19922;-73
2023/04/16 03:33:02;;;;;;;;;;;8.20;99.90;;;;;;4956000;28;19929;-73
2023/04/16 03:35:28;;;;;;;;;;;8.20;99.90;;;;;;4955472;29;20367;-72
2023/04/16 03:37:53;;;;;;;;;;;8.20;99.90;;;;;;4955260;29;20326;-73
2023/04/16 03:40:19;;;;;;;;;;;8.50;99.90;;;;;;4954704;29;19930;-73
2023/04/16 03:42:45;;;;;;;;;;;8.20;99.90;;;;;;4955313;29;19931;-73
2023/04/16 03:45:10;;;;;;;;;;;8.20;99.90;;;;;;4955666;29;20384;-73
2023/04/16 03:47:36;;;;;;;;;;;8.20;99.90;;;;;;4955666;29;19929;-73
2023/04/16 03:50:01;;;;;;;;;;;8.20;99.90;;;;;;4955264;29;19922;-73
2023/04/16 03:52:27;;;;;;;;;;;8.20;99.90;;;;;;4955703;29;19968;-73
2023/04/16 03:54:52;;;;;;;;;;;8.20;99.90;;;;;;4973105;28;20070;-73
2023/04/16 03:57:18;;;;;;;;;;;8.20;99.90;;;;;;4975066;28;19928;-73
2023/04/16 03:59:43;;;;;;;;;;;8.20;99.90;;;;;;4975227;28;20429;-73
2023/04/16 04:02:09;;;;;;;;;;;8.20;99.90;;;;;;4972286;28;19953;-73
2023/04/16 04:04:35;;;;;;;;;;;8.20;99.90;;;;;;4971053;28;19933;-73
2023/04/16 04:07:00;;;;;;;;;;;8.20;99.90;;;;;;4955557;28;19926;-73
2023/04/16 04:09:25;;;;;;;;;;;8.20;99.90;;;;;;4955263;28;19930;-73
2023/04/16 04:11:51;;;;;;;;;;;8.20;99.90;;;;;;4954921;28;20413;-73
2023/04/16 04:14:16;;;;;;;;;;;8.20;99.90;;;;;;4955644;28;19926;-72
2023/04/16 04:16:42;;;;;;;;;;;8.20;99.90;;;;;;4954662;28;19926;-73
2023/04/16 04:19:07;;;;;;;;;;;8.20;99.90;;;;;;4967395;28;19928;-73
2023/04/16 04:21:33;;;;;;;;;;;8.20;99.90;;;;;;4993684;28;20028;-73
2023/04/16 04:23:58;;;;;;;;;;;8.40;99.90;;;;;;4975718;28;20361;-73
2023/04/16 04:26:24;;;;;;;;;;;8.30;99.90;;;;;;4993862;28;19928;-73
2023/04/16 04:28:50;;;;;;;;;;;8.30;99.90;;;;;;4994224;28;19921;-73
2023/04/16 04:31:15;;;;;;;;;;;8.30;99.90;;;;;;4975891;28;20004;-73
2023/04/16 04:33:41;;;;;;;;;;;8.30;99.90;;;;;;4993357;28;19917;-73
2023/04/16 04:36:06;;;;;;;;;;;8.60;99.90;;;;;;4976267;28;19928;-73
2023/04/16 04:38:32;;;;;;;;;;;8.30;99.90;;;;;;4976012;28;20358;-73
2023/04/16 04:40:58;;;;;;;;;;;8.30;99.90;;;;;;4993072;28;19929;-73
2023/04/16 04:43:23;;;;;;;;;;;8.30;99.90;;;;;;4993598;28;19922;-72
2023/04/16 04:45:49;;;;;;;;;;;8.30;99.90;;;;;;4992590;28;20012;-73
2023/04/16 04:48:14;;;;;;;;;;;8.70;99.90;;;;;;4975946;28;19976;-73
2023/04/16 04:50:40;;;;;;;;;;;8.30;99.90;;;;;;4995777;28;19925;-73
2023/04/16 04:53:09;;;;;;;;;;;8.30;99.90;;;;;;5011982;28;19917;-73
2023/04/16 04:55:35;;;;;;;;;;;8.30;99.90;;;;;;4995894;28;19996;-72
2023/04/16 04:58:01;;;;;;;;;;;8.30;99.90;;;;;;5012170;28;20438;-72
2023/04/16 05:00:27;;;;;;;;;;;8.40;99.90;;;;;;5011429;28;20000;-72
2023/04/16 05:02:52;;;;;;;;;;;8.20;99.90;;;;;;4993290;28;20361;-73
2023/04/16 05:05:18;;;;;;;;;;;8.30;99.90;;;;;;4992817;28;19918;-73
2023/04/16 05:07:43;;;;;;;;;;;8.30;99.90;;;;;;4975722;28;19965;-73
2023/04/16 05:10:09;;;;;;;;;;;8.30;99.90;;;;;;4975543;28;19925;-73
2023/04/16 05:12:34;;;;;;;;;;;8.30;99.90;;;;;;5008695;28;19922;-74
2023/04/16 05:15:00;;;;;;;;;;;8.20;99.90;;;;;;5016034;28;19922;-73
2023/04/16 05:17:25;;;;;;;;;;;9.20;99.90;;;;;;5016782;28;19968;-73
2023/04/16 05:19:51;;;;;;;;;;;8.20;99.90;;;;;;5015901;28;19921;-73
2023/04/16 05:22:17;;;;;;;;;;;8.20;99.90;;;;;;4994191;28;20009;-73
2023/04/16 05:24:43;;;;;;;;;;;8.20;99.90;;;;;;4997207;28;19921;-73
2023/04/16 05:27:08;;;;;;;;;;;8.30;99.90;;;;;;4996523;28;20453;-73
2023/04/16 05:29:34;;;;;;;;;;;8.30;99.90;;;;;;4979707;28;20293;-73
2023/04/16 05:32:00;;;;;;;;;;;8.30;99.90;;;;;;4996711;28;20366;-73
2023/04/16 05:34:26;;;;;;;;;;;8.50;99.90;;;;;;4996191;28;19922;-73
2023/04/16 05:36:51;;;;;;;;;;;8.30;99.90;;;;;;4996851;28;19933;-73
2023/04/16 05:39:17;;;;;;;;;;;8.30;99.90;;;;;;4979721;28;19921;-73
2023/04/16 05:41:43;;;;;;;;;;;8.30;99.90;;;;;;4996263;28;19975;-73
2023/04/16 05:44:08;;;;;;;;;;;8.30;99.90;;;;;;4978816;28;19926;-73
2023/04/16 05:46:34;;;;;;;;;;;8.50;99.90;;;;;;4996474;28;20337;-73
2023/04/16 05:49:00;;;;;;;;;;;8.30;99.90;;;;;;4995380;28;19921;-73
2023/04/16 05:51:26;;;;;;;;;;;8.30;99.90;;;;;;4979310;28;20021;-73
2023/04/16 05:53:52;;;;;;;;;;;8.30;99.90;;;;;;4996455;28;20024;-72
2023/04/16 05:56:17;;;;;;;;;;;8.30;99.90;;;;;;4992211;28;20024;-73
2023/04/16 05:58:43;;;;;;;;;;;8.40;99.90;;;;;;5015871;28;19921;-72
2023/04/16 06:01:09;;;;;;;;;;;8.40;99.90;;;;;;5015808;28;19925;-73
2023/04/16 06:03:35;;;;;;;;;;;8.70;99.90;;;;;;4997681;28;19933;-73
2023/04/16 06:06:00;;;;;;;;;;;8.30;99.90;;;;;;4987804;28;19922;-73
2023/04/16 06:08:26;;;;;;;;;;;8.60;99.90;;;;;;4979787;28;20312;-72
2023/04/16 06:10:51;;;;;;;;;;;8.30;99.90;;;;;;4996084;28;20373;-73
2023/04/16 06:13:17;;;;;;;;;;;8.30;99.90;;;;;;4996142;28;19922;-73
2023/04/16 06:15:42;;;;;;;;;;;8.60;99.90;;;;;;4978571;28;19965;-73
2023/04/16 06:18:08;;;;;;;;;;;8.70;99.90;;;;;;4995417;28;19926;-73
2023/04/16 06:20:33;;;;;;;;;;;8.80;99.90;;;;;;5004714;28;20290;-73
2023/04/16 06:22:59;;;;;;;;;;;8.40;99.90;;;;;;4993313;28;19964;-73
2023/04/16 06:25:25;;;;;;;;;;;8.50;99.90;;;;;;4995359;28;19979;-73
2023/04/16 06:27:50;;;;;;;;;;;8.40;99.90;;;;;;4995790;28;19926;-73
2023/04/16 06:30:16;;;;;;;;;;;8.40;99.90;;;;;;4995419;28;19945;-73
2023/04/16 06:32:42;;;;;;;;;;;8.40;99.90;;;;;;5014455;28;19922;-73
2023/04/16 06:35:07;;;;;;;;;;;8.40;99.90;;;;;;4987746;28;19937;-73
2023/04/16 06:37:33;;;;;;;;;;;8.40;99.90;;;;;;4994639;28;20394;-72
2023/04/16 06:39:58;;;;;;;;;;;8.80;99.90;;;;;;4978325;28;20028;-73
2023/04/16 06:42:24;;;;;;;;;;;8.40;99.90;;;;;;4995418;28;19977;-78
2023/04/16 06:44:49;;;;;;;;;;;8.80;99.90;;;;;;4989237;28;20288;-74
2023/04/16 06:47:15;;;;;;;;;;;8.90;99.90;;;;;;4977879;28;20448;-74
2023/04/16 06:49:40;;;;;;;;;;;8.50;99.90;;;;;;4995272;28;20000;-73
2023/04/16 06:52:06;;;;;;;;;;;8.50;99.90;;;;;;4994570;28;19921;-73
2023/04/16 06:54:32;;;;;;;;;;;8.50;99.90;;;;;;5008012;28;19921;-80
2023/04/16 06:56:57;;;;;;;;;;;8.50;99.90;;;;;;5000914;28;19918;-75
2023/04/16 06:59:23;;;;;;;;;;;8.40;99.90;;;;;;5004887;28;19929;-76
2023/04/16 07:01:48;;;;;;;;;;;8.50;99.90;;;;;;5004071;28;19934;-75
2023/04/16 07:04:14;;;;;;;;;;;8.50;99.90;;;;;;5003762;28;20299;-74
2023/04/16 07:06:39;;;;;;;;;;;8.40;99.90;;;;;;5014990;28;20027;-73
2023/04/16 07:09:05;;;;;;;;;;;8.50;99.90;;;;;;5000334;28;19965;-75
2023/04/16 07:11:30;;;;;;;;;;;8.60;99.90;;;;;;4994902;28;19928;-75
2023/04/16 07:13:56;;;;;;;;;;;8.50;99.90;;;;;;4993925;28;20012;-75
2023/04/16 07:16:22;;;;;;;;;;;8.50;99.90;;;;;;4977791;28;19921;-75
2023/04/16 07:18:48;;;;;;;;;;;8.60;99.90;;;;;;4994147;28;19968;-79
2023/04/16 07:21:13;;;;;;;;;;;8.60;99.90;;;;;;4980971;28;19937;-74
2023/04/16 07:23:39;;;;;;;;;;;8.60;99.90;;;;;;4988698;28;19922;-74
2023/04/16 07:26:04;;;;;;;;;;;8.90;99.90;;;;;;5011772;28;19940;-78
2023/04/16 07:28:30;;;;;;;;;;;8.60;99.90;;;;;;5012305;28;19928;-77
2023/04/16 07:30:55;;;;;;;;;;;9.20;99.90;;;;;;5030471;28;19921;-72
2023/04/16 07:33:21;;;;;;;;;;;8.70;99.90;;;;;;5013684;28;20014;-72
2023/04/16 07:35:47;;;;;;;;;;;8.70;99.90;;;;;;5013420;28;19921;-76
2023/04/16 07:38:12;;;;;;;;;;;8.70;99.90;;;;;;5015914;28;19976;-72
2023/04/16 07:40:38;;;;;;;;;;;8.70;99.90;;;;;;4991677;28;19922;-73
2023/04/16 07:43:03;;;;;;;;;;;8.70;99.90;;;;;;4975469;28;20320;-73
2023/04/16 07:45:32;;;;;;;;;;;8.70;99.90;;;;;;4977068;28;19976;-73
2023/04/16 07:47:57;;;;;;;;;;;9.30;99.90;;;;;;4993545;28;20324;-74
2023/04/16 07:50:23;;;;;;;;;;;8.80;99.90;;;;;;4976979;28;19922;-73
2023/04/16 07:52:49;;;;;;;;;;;8.80;99.90;;;;;;4976652;28;19922;-72
2023/04/16 07:55:14;;;;;;;;;;;8.80;99.90;;;;;;4994096;28;20284;-74
2023/04/16 07:57:48;;;;;;;;;;;8.80;99.90;;;;;;5111100;27;19912;-71
2023/04/16 08:00:13;;;;;;;;;;;8.90;99.90;;;;;;5109145;28;19930;-72
2023/04/16 08:02:39;;;;;;;;;;;8.90;99.90;;;;;;5104109;28;19967;-68
2023/04/16 08:05:05;;;;;;;;;;;8.90;99.90;;;;;;5096841;28;19924;-70
2023/04/16 08:07:30;;;;;;;;;;;9.00;99.90;;;;;;5130514;27;19955;-71
2023/04/16 08:09:56;;;;;;;;;;;9.30;99.90;;;;;;5091651;28;19928;-71
2023/04/16 08:12:22;;;;;;;;;;;9.80;99.90;;;;;;5108904;28;19924;-71
2023/04/16 08:14:47;;;;;;;;;;;9.00;99.90;;;;;;5107822;28;20015;-70
2023/04/16 08:17:13;;;;;;;;;;;9.00;99.90;;;;;;5108711;28;19972;-72
2023/04/16 08:19:39;;;;;;;;;;;9.40;99.90;;;;;;5107762;28;19932;-70
2023/04/16 08:22:05;;;;;;;;;;;9.00;99.90;;;;;;5108556;28;19924;-70
2023/04/16 08:24:30;;;;;;;;;;;9.10;99.90;;;;;;5107684;28;19931;-70
2023/04/16 08:26:56;;;;;;;;;;;9.10;99.90;;;;;;5107862;28;20252;-71
2023/04/16 08:29:25;;;;;;;;;;;9.20;99.90;;;;;;5108971;28;20256;-69
2023/04/16 08:31:50;;;;;;;;;;;9.10;99.90;;;;;;5107690;28;20363;-72
2023/04/16 08:34:16;;;;;;;;;;;9.70;99.90;;;;;;5107752;28;19931;-73
2023/04/16 08:36:42;;;;;;;;;;;9.20;99.90;;;;;;5106439;28;19931;-72
2023/04/16 08:39:07;;;;;;;;;;;9.20;99.90;;;;;;5107741;28;19928;-72
2023/04/16 08:41:33;;;;;;;;;;;9.20;99.90;;;;;;5107531;28;19928;-72
2023/04/16 08:43:59;;;;;;;;;;;9.20;99.90;;;;;;5106803;28;19932;-72
2023/04/16 08:46:25;;;;;;;;;;;9.30;99.90;;;;;;5109214;28;19977;-73
2023/04/16 08:48:53;;;;;;;;;;;9.40;99.90;;;;;;5107817;28;19928;-72
2023/04/16 08:51:23;;;;;;;;;;;9.40;99.90;;;;;;5106768;28;19928;-73
2023/04/16 08:53:51;;;;;;;;;;;9.50;99.90;;;;;;5107594;28;20542;-74
2023/04/16 08:56:18;;;;;;;;;;;9.50;99.90;;;;;;5107437;28;19924;-72
2023/04/16 08:58:44;;;;;;;;;;;9.60;99.90;;;;;;5108096;28;19924;-76
2023/04/16 09:01:10;;;;;;;;;;;9.70;99.90;;;;;;5108527;28;20347;-74
2023/04/16 09:03:36;;;;;;;;;;;9.60;99.90;;;;;;5108790;28;19935;-75
2023/04/16 09:06:03;;;;;;;;;;;9.50;99.90;;;;;;5107432;28;20511;-73
2023/04/16 09:08:28;;;;;;;;;;;9.60;99.90;;;;;;5099050;28;19950;-74
2023/04/16 09:10:58;;;;;;;;;;;9.60;99.90;;;;;;5090120;28;19923;-75
2023/04/16 09:13:24;;;;;;;;;;;9.60;99.90;;;;;;5092053;28;19973;-73
2023/04/16 09:15:53;;;;;;;;;;;9.70;99.90;;;;;;5092837;28;20039;-72
2023/04/16 09:18:20;;;;;;;;;;;9.70;99.90;;;;;;5092934;28;19935;-72
2023/04/16 09:20:46;;;;;;;;;;;9.80;99.90;;;;;;5094077;28;19924;-74
2023/04/16 09:23:12;;;;;;;;;;;9.90;99.90;;;;;;5092329;28;19932;-73
2023/04/16 09:25:37;;;;;;;;;;;10.20;99.90;;;;;;5091528;28;19935;-75
2023/04/16 09:28:03;;;;;;;;;;;10.00;99.90;;;;;;5091843;28;19955;-73
2023/04/16 09:30:28;;;;;;;;;;;10.10;99.90;;;;;;5090932;28;19928;-77
2023/04/16 09:33:12;;;;;;;;;;;10.10;99.90;;;;;;5091976;28;19947;-74
2023/04/16 09:35:48;;;;;;;;;;;10.10;99.90;;;;;;5093128;28;19928;-77
2023/04/16 09:38:13;;;;;;;;;;;10.20;99.90;;;;;;5091934;28;19923;-78
2023/04/16 09:40:39;;;;;;;;;;;10.20;99.90;;;;;;5092950;28;20303;-74
2023/04/16 09:43:15;;;;;;;;;;;10.30;99.90;;;;;;5092899;28;20387;-76
2023/04/16 09:45:50;;;;;;;;;;;10.30;99.90;;;;;;5094311;28;20374;-76
2023/04/16 09:48:27;;;;;;;;;;;10.50;99.90;;;;;;5093409;28;19932;-75
2023/04/16 09:50:52;;;;;;;;;;;10.60;99.90;;;;;;5092089;28;19931;-71
2023/04/16 09:53:27;;;;;;;;;;;10.60;99.90;;;;;;5092899;28;19924;-71
2023/04/16 09:56:00;;;;;;;;;;;10.70;99.90;;;;;;5088947;28;19963;-71
2023/04/16 09:58:26;;;;;;;;;;;10.80;99.90;;;;;;5093260;28;20015;-71
2023/04/16 10:01:11;;;;;;;;;;;10.70;99.90;;;;;;5090349;28;20062;-71
2023/04/16 10:03:37;;;;;;;;;;;10.80;99.90;;;;;;5091602;28;19928;-71
2023/04/16 10:06:08;;;;;;;;;;;10.60;99.90;;;;;;5092144;28;20287;-72
2023/04/16 10:08:43;;;;;;;;;;;10.60;99.90;;;;;;5089891;28;19925;-71
2023/04/16 10:11:09;;;;;;;;;;;10.60;99.90;;;;;;5092026;28;19935;-72
2023/04/16 10:13:35;;;;;;;;;;;10.70;99.90;;;;;;5092382;28;19931;-71
2023/04/16 10:16:02;;;;;;;;;;;10.60;99.90;;;;;;5090812;28;19947;-71
2023/04/16 10:18:27;;;;;;;;;;;10.60;99.90;;;;;;5093712;28;19924;-72
2023/04/16 10:20:53;;;;;;;;;;;10.60;99.90;;;;;;5092052;28;19924;-72
2023/04/16 10:23:20;;;;;;;;;;;10.50;99.90;;;;;;5090361;28;19988;-73
2023/04/16 10:25:47;;;;;;;;;;;10.60;99.90;;;;;;5091370;28;19928;-72
2023/04/16 10:28:12;;;;;;;;;;;10.50;99.90;;;;;;5089466;28;19932;-73
2023/04/16 10:30:38;;;;;;;;;;;10.40;99.90;;;;;;5092397;28;20015;-72
2023/04/16 10:33:04;;;;;;;;;;;10.50;99.90;;;;;;5089197;28;19959;-74
2023/04/16 10:35:30;;;;;;;;;;;10.50;99.90;;;;;;5092455;28;19928;-74
2023/04/16 10:37:56;;;;;;;;;;;10.50;99.90;;;;;;5090540;28;19966;-76
2023/04/16 10:40:25;;;;;;;;;;;10.50;99.90;;;;;;5089807;28;19924;-72
2023/04/16 10:42:57;;;;;;;;;;;10.60;99.90;;;;;;5090436;28;19932;-70
2023/04/16 10:45:30;;;;;;;;;;;10.60;99.90;;;;;;5086430;28;20337;-69
2023/04/16 10:47:57;;;;;;;;;;;10.80;99.90;;;;;;5091791;28;19936;-68
2023/04/16 10:50:22;;;;;;;;;;;10.70;99.90;;;;;;5075604;28;19978;-69
2023/04/16 10:52:48;;;;;;;;;;;10.90;99.90;;;;;;5093306;28;19967;-69
2023/04/16 10:55:15;;;;;;;;;;;11.00;99.90;;;;;;5091350;28;19924;-71
2023/04/16 10:57:41;;;;;;;;;;;10.80;99.90;;;;;;5109712;28;19927;-71
2023/04/16 11:00:24;;;;;;;;;;;10.90;99.90;;;;;;5092064;28;19931;-71
2023/04/16 11:02:53;;;;;;;;;;;10.90;99.90;;;;;;5111748;28;19985;-71
2023/04/16 11:05:22;;;;;;;;;;;11.00;99.90;;;;;;5100714;28;20395;-76
2023/04/16 11:07:48;;;;;;;;;;;11.10;99.90;;;;;;5112333;27;19930;-72
2023/04/16 11:10:14;;;;;;;;;;;11.20;99.90;;;;;;5110493;28;19928;-72
2023/04/16 11:12:39;;;;;;;;;;;11.20;99.90;;;;;;5094175;27;19980;-72
2023/04/16 11:15:05;;;;;;;;;;;11.10;99.90;;;;;;5093761;28;20331;-72
2023/04/16 11:17:38;;;;;;;;;;;11.20;99.90;;;;;;5094005;28;20014;-71
2023/04/16 11:20:05;;;;;;;;;;;11.20;99.90;;;;;;5118239;27;19931;-71
2023/04/16 11:22:33;;;;;;;;;;;11.10;99.90;;;;;;5093294;28;19924;-72
2023/04/16 11:24:59;;;;;;;;;;;11.10;99.90;;;;;;5092997;28;20018;-72
2023/04/16 11:27:25;;;;;;;;;;;11.10;99.90;;;;;;5093908;28;20088;-73
2023/04/16 11:30:04;;;;;;;;;;;11.20;99.90;;;;;;5112782;28;19924;-72
2023/04/16 11:32:30;;;;;;;;;;;11.20;99.90;;;;;;5108522;28;19928;-71
2023/04/16 11:34:56;;;;;;;;;;;11.10;99.90;;;;;;5094331;28;19924;-71
2023/04/16 11:37:31;;;;;;;;;;;11.20;99.90;;;;;;5112356;28;20026;-71
2023/04/16 11:39:57;;;;;;;;;;;11.20;99.90;;;;;;5111497;28;20023;-72
2023/04/16 11:42:22;;;;;;;;;;;11.20;99.90;;;;;;5112462;28;20018;-72
2023/04/16 11:44:55;;;;;;;;;;;11.30;99.90;;;;;;5112696;28;21245;-72
2023/04/16 11:47:21;;;;;;;;;;;11.30;99.90;;;;;;5091705;28;19920;-73
2023/04/16 11:49:47;;;;;;;;;;;11.40;99.90;;;;;;5112903;28;19924;-75
2023/04/16 11:52:23;;;;;;;;;;;11.30;99.90;;;;;;5094481;28;19931;-73
2023/04/16 11:54:49;;;;;;;;;;;11.20;99.90;;;;;;5112990;28;20039;-77
2023/04/16 11:57:22;;;;;;;;;;;11.10;99.90;;;;;;5094430;28;20034;-77
2023/04/16 11:59:48;;;;;;;;;;;11.10;99.90;;;;;;5090604;28;19923;-72
2023/04/16 12:02:13;;;;;;;;;;;11.00;99.90;;;;;;5111141;28;19928;-76
2023/04/16 12:04:39;;;;;;;;;;;11.20;99.90;;;;;;5111995;28;19932;-75
2023/04/16 12:07:07;;;;;;;;;;;11.20;99.90;;;;;;5093496;28;19928;-76
2023/04/16 12:09:36;;;;;;;;;;;11.30;99.90;;;;;;5110404;28;19931;-74
2023/04/16 12:12:02;;;;;;;;;;;11.90;99.90;;;;;;5094757;28;19924;-74
2023/04/16 12:14:28;;;;;;;;;;;11.60;99.90;;;;;;5111763;28;19923;-73
2023/04/16 12:16:54;;;;;;;;;;;12.00;99.90;;;;;;5094309;28;19930;-74
2023/04/16 12:19:20;;;;;;;;;;;11.90;99.90;;;;;;5112612;28;19927;-74
2023/04/16 12:21:46;;;;;;;;;;;11.90;99.90;;;;;;5112839;28;19993;-80
2023/04/16 12:24:13;;;;;;;;;;;12.00;99.90;;;;;;5112480;28;19931;-76
2023/04/16 12:26:43;;;;;;;;;;;11.90;99.90;;;;;;5094224;28;19923;-73
2023/04/16 12:29:19;;;;;;;;;;;11.90;99.90;;;;;;5111058;28;20360;-75
2023/04/16 12:31:45;;;;;;;;;;;11.90;99.90;;;;;;5092169;28;19924;-72
2023/04/16 12:34:11;;;;;;;;;;;11.80;99.90;;;;;;5111320;28;19927;-71
2023/04/16 12:36:37;;;;;;;;;;;11.80;99.90;;;;;;5111200;28;19970;-72
2023/04/16 12:39:03;;;;;;;;;;;11.90;99.90;;;;;;5111825;28;19953;-71
2023/04/16 12:41:28;;;;;;;;;;;11.80;99.90;;;;;;5094142;28;20065;-71
2023/04/16 12:44:03;;;;;;;;;;;11.90;99.90;;;;;;5095393;28;19931;-72
2023/04/16 12:46:28;;;;;;;;;;;11.70;99.90;;;;;;5097142;28;20310;-72
2023/04/16 12:48:56;;;;;;;;;;;11.80;99.90;;;;;;5115090;28;19920;-71
2023/04/16 12:51:21;;;;;;;;;;;11.80;99.90;;;;;;5114738;28;19924;-73
2023/04/16 12:53:47;;;;;;;;;;;11.80;99.90;;;;;;5115024;28;19920;-72
2023/04/16 12:56:13;;;;;;;;;;;12.00;99.90;;;;;;5113823;28;20272;-72
2023/04/16 12:58:38;;;;;;;;;;;12.00;99.90;;;;;;5115364;28;20393;-73
2023/04/16 13:01:04;;;;;;;;;;;12.00;99.90;;;;;;5096787;28;19919;-73
2023/04/16 13:03:30;;;;;;;;;;;12.00;99.90;;;;;;5096259;28;20562;-73
2023/04/16 13:05:55;;;;;;;;;;;12.00;99.90;;;;;;5114844;28;19927;-71
2023/04/16 13:08:21;;;;;;;;;;;12.00;99.90;;;;;;5097132;28;19973;-71
2023/04/16 13:10:46;;;;;;;;;;;11.80;99.90;;;;;;5095974;28;20355;-71
2023/04/16 13:13:12;;;;;;;;;;;11.90;99.90;;;;;;5113549;28;19920;-71
2023/04/16 13:15:37;;;;;;;;;;;11.90;99.90;;;;;;5095553;28;19923;-70
2023/04/16 13:18:03;;;;;;;;;;;12.10;99.90;;;;;;5094977;28;20014;-72
2023/04/16 13:20:29;;;;;;;;;;;12.00;99.90;;;;;;5113861;28;19923;-72
2023/04/16 13:22:54;;;;;;;;;;;12.10;99.90;;;;;;5113232;28;19924;-73
2023/04/16 13:25:20;;;;;;;;;;;12.10;99.90;;;;;;5112777;28;19931;-75
2023/04/16 13:27:45;;;;;;;;;;;12.20;99.90;;;;;;5113588;28;20029;-72
2023/04/16 13:30:11;;;;;;;;;;;12.30;99.90;;;;;;5094796;28;20014;-71
2023/04/16 13:32:36;;;;;;;;;;;12.30;99.90;;;;;;5095263;28;19924;-70
2023/04/16 13:35:02;;;;;;;;;;;12.20;99.90;;;;;;5096622;28;20371;-69
2023/04/16 13:37:27;;;;;;;;;;;12.10;99.90;;;;;;5115244;28;19931;-69
2023/04/16 13:39:53;;;;;;;;;;;12.10;99.90;;;;;;5095088;28;19931;-70
2023/04/16 13:42:18;;;;;;;;;;;12.10;99.90;;;;;;5115238;28;20454;-71
2023/04/16 13:44:47;;;;;;;;;;;12.20;99.90;;;;;;5096795;28;19924;-71
2023/04/16 13:47:13;;;;;;;;;;;12.30;99.90;;;;;;5114015;28;19923;-72
2023/04/16 13:49:38;;;;;;;;;;;12.10;99.90;;;;;;5115276;28;19930;-71
2023/04/16 13:52:04;;;;;;;;;;;12.40;99.90;;;;;;5114496;28;20326;-70
2023/04/16 13:54:30;;;;;;;;;;;12.40;99.90;;;;;;5095474;28;19928;-70
2023/04/16 13:56:55;;;;;;;;;;;12.30;99.90;;;;;;5114314;28;19975;-70
2023/04/16 13:59:21;;;;;;;;;;;12.30;99.90;;;;;;5114528;28;19924;-70
2023/04/16 14:01:46;;;;;;;;;;;12.20;99.90;;;;;;5114065;28;19923;-70
2023/04/16 14:04:12;;;;;;;;;;;12.20;99.90;;;;;;5114440;28;20443;-70
2023/04/16 14:06:37;;;;;;;;;;;12.30;99.90;;;;;;5114032;28;19958;-69
2023/04/16 14:09:03;;;;;;;;;;;12.30;99.90;;;;;;5096156;28;19924;-71
2023/04/16 14:11:28;;;;;;;;;;;12.30;99.90;;;;;;5096363;28;19930;-71
2023/04/16 14:13:54;;;;;;;;;;;12.20;99.90;;;;;;5113909;28;20046;-71
2023/04/16 14:16:19;;;;;;;;;;;12.20;99.90;;;;;;5114300;28;19932;-71
2023/04/16 14:18:45;;;;;;;;;;;12.30;99.90;;;;;;5095849;28;19934;-72
2023/04/16 14:21:12;;;;;;;;;;;12.40;99.90;;;;;;5095081;28;19934;-73